sensor_id;sensor_type;location;lat;lon;timestamp;P1;durP1;ratioP1;P2;durP2;ratioP2
50367;SDS011;36281;34.132;-118.018;2024-02-15T00:00:19;19.00;;;15.32;;
50367;SDS011;36281;34.132;-118.018;2024-02-15T00:02:48;17.60;;;13.68;;
50367;SDS011;36281;34.132;-118.018;2024-02-15T00:05:17;18.52;;;14.35;;
50367;SDS011;36281;34.132;-118.018;2024-02-15T00:07:46;17.30;;;13.77;;
50367;SDS011;36281;34.132;-118.018;2024-02-15T00:10:18;16.10;;;13.52;;
50367;SDS011;36281;34.132;-118.018;2024-02-15T00:12:50;16.48;;;13.18;;
50367;SDS011;36281;34.132;-118.018;2024-02-15T00:15:21;15.35;;;13.68;;
50367;SDS011;36281;34.132;-118.018;2024-02-15T00:17:50;18.38;;;13.40;;
50367;SDS011;36281;34.132;-118.018;2024-02-15T00:20:20;13.82;;;12.38;;
50367;SDS011;36281;34.132;-118.018;2024-02-15T00:22:49;19.63;;;12.02;;
50367;SDS011;36281;34.132;-118.018;2024-02-15T00:25:20;12.85;;;11.27;;
50367;SDS011;36281;34.132;-118.018;2024-02-15T00:27:49;12.65;;;10.38;;
50367;SDS011;36281;34.132;-118.018;2024-02-15T00:30:18;13.23;;;10.60;;
50367;SDS011;36281;34.132;-118.018;2024-02-15T00:32:48;13.75;;;11.00;;
50367;SDS011;36281;34.132;-118.018;2024-02-15T00:35:19;13.18;;;10.45;;
50367;SDS011;36281;34.132;-118.018;2024-02-15T00:37:48;11.57;;;9.63;;
50367;SDS011;36281;34.132;-118.018;2024-02-15T00:40:18;12.20;;;8.45;;
50367;SDS011;36281;34.132;-118.018;2024-02-15T00:42:48;11.60;;;8.18;;
50367;SDS011;36281;34.132;-118.018;2024-02-15T00:45:17;10.65;;;8.13;;
50367;SDS011;36281;34.132;-118.018;2024-02-15T00:47:48;9.13;;;7.85;;
50367;SDS011;36281;34.132;-118.018;2024-02-15T00:50:17;9.63;;;7.15;;
50367;SDS011;36281;34.132;-118.018;2024-02-15T00:52:47;9.05;;;7.63;;
50367;SDS011;36281;34.132;-118.018;2024-02-15T00:55:16;12.35;;;8.40;;
50367;SDS011;36281;34.132;-118.018;2024-02-15T00:57:45;9.30;;;6.70;;
50367;SDS011;36281;34.132;-118.018;2024-02-15T01:00:14;11.20;;;6.97;;
50367;SDS011;36281;34.132;-118.018;2024-02-15T01:02:44;11.88;;;6.65;;
50367;SDS011;36281;34.132;-118.018;2024-02-15T01:05:15;10.35;;;6.97;;
50367;SDS011;36281;34.132;-118.018;2024-02-15T01:07:44;10.93;;;6.97;;
50367;SDS011;36281;34.132;-118.018;2024-02-15T01:13:19;11.68;;;7.00;;
50367;SDS011;36281;34.132;-118.018;2024-02-15T01:15:49;10.75;;;7.28;;
50367;SDS011;36281;34.132;-118.018;2024-02-15T01:18:18;10.30;;;6.00;;
50367;SDS011;36281;34.132;-118.018;2024-02-15T01:20:49;8.35;;;5.53;;
50367;SDS011;36281;34.132;-118.018;2024-02-15T01:23:18;7.40;;;4.80;;
50367;SDS011;36281;34.132;-118.018;2024-02-15T01:25:47;9.00;;;4.80;;
50367;SDS011;36281;34.132;-118.018;2024-02-15T01:28:16;9.48;;;5.32;;
50367;SDS011;36281;34.132;-118.018;2024-02-15T01:30:45;7.63;;;4.63;;
50367;SDS011;36281;34.132;-118.018;2024-02-15T01:33:17;8.73;;;4.80;;
50367;SDS011;36281;34.132;-118.018;2024-02-15T01:35:47;6.10;;;4.07;;
50367;SDS011;36281;34.132;-118.018;2024-02-15T01:38:18;7.32;;;4.10;;
50367;SDS011;36281;34.132;-118.018;2024-02-15T01:40:47;5.78;;;4.00;;
50367;SDS011;36281;34.132;-118.018;2024-02-15T01:43:16;7.60;;;4.43;;
50367;SDS011;36281;34.132;-118.018;2024-02-15T01:45:45;9.95;;;4.50;;
50367;SDS011;36281;34.132;-118.018;2024-02-15T01:48:18;6.60;;;3.97;;
50367;SDS011;36281;34.132;-118.018;2024-02-15T01:50:50;9.88;;;5.53;;
50367;SDS011;36281;34.132;-118.018;2024-02-15T01:53:19;8.82;;;5.95;;
50367;SDS011;36281;34.132;-118.018;2024-02-15T01:55:49;9.57;;;5.82;;
50367;SDS011;36281;34.132;-118.018;2024-02-15T01:58:20;7.90;;;4.55;;
50367;SDS011;36281;34.132;-118.018;2024-02-15T02:00:49;8.40;;;5.03;;
50367;SDS011;36281;34.132;-118.018;2024-02-15T02:03:21;9.10;;;4.85;;
50367;SDS011;36281;34.132;-118.018;2024-02-15T02:05:52;6.40;;;5.03;;
50367;SDS011;36281;34.132;-118.018;2024-02-15T02:08:21;8.90;;;4.43;;
50367;SDS011;36281;34.132;-118.018;2024-02-15T02:10:50;5.97;;;4.60;;
50367;SDS011;36281;34.132;-118.018;2024-02-15T02:13:20;7.72;;;4.57;;
50367;SDS011;36281;34.132;-118.018;2024-02-15T02:15:49;5.68;;;4.20;;
50367;SDS011;36281;34.132;-118.018;2024-02-15T02:18:19;5.85;;;3.92;;
50367;SDS011;36281;34.132;-118.018;2024-02-15T02:20:48;5.03;;;4.00;;
50367;SDS011;36281;34.132;-118.018;2024-02-15T02:23:19;6.10;;;4.10;;
50367;SDS011;36281;34.132;-118.018;2024-02-15T02:25:55;8.45;;;3.90;;
50367;SDS011;36281;34.132;-118.018;2024-02-15T02:28:25;4.40;;;4.00;;
50367;SDS011;36281;34.132;-118.018;2024-02-15T02:30:54;5.70;;;4.38;;
50367;SDS011;36281;34.132;-118.018;2024-02-15T02:33:24;7.32;;;3.97;;
50367;SDS011;36281;34.132;-118.018;2024-02-15T02:35:56;7.20;;;4.20;;
50367;SDS011;36281;34.132;-118.018;2024-02-15T02:38:26;6.15;;;4.13;;
50367;SDS011;36281;34.132;-118.018;2024-02-15T02:40:57;5.15;;;4.00;;
50367;SDS011;36281;34.132;-118.018;2024-02-15T02:43:26;6.18;;;4.13;;
50367;SDS011;36281;34.132;-118.018;2024-02-15T02:45:55;6.82;;;4.30;;
50367;SDS011;36281;34.132;-118.018;2024-02-15T02:48:24;8.07;;;3.90;;
50367;SDS011;36281;34.132;-118.018;2024-02-15T02:50:55;6.82;;;4.00;;
50367;SDS011;36281;34.132;-118.018;2024-02-15T02:53:24;5.05;;;3.83;;
50367;SDS011;36281;34.132;-118.018;2024-02-15T02:55:53;5.70;;;3.70;;
50367;SDS011;36281;34.132;-118.018;2024-02-15T02:58:25;5.03;;;4.20;;
50367;SDS011;36281;34.132;-118.018;2024-02-15T03:00:54;4.95;;;4.03;;
50367;SDS011;36281;34.132;-118.018;2024-02-15T03:03:25;9.98;;;4.63;;
50367;SDS011;36281;34.132;-118.018;2024-02-15T03:05:54;5.95;;;3.70;;
50367;SDS011;36281;34.132;-118.018;2024-02-15T03:08:24;10.52;;;4.60;;
50367;SDS011;36281;34.132;-118.018;2024-02-15T03:10:53;6.53;;;4.32;;
50367;SDS011;36281;34.132;-118.018;2024-02-15T03:13:22;6.18;;;4.40;;
50367;SDS011;36281;34.132;-118.018;2024-02-15T03:15:53;6.13;;;4.20;;
50367;SDS011;36281;34.132;-118.018;2024-02-15T03:18:22;7.53;;;4.30;;
50367;SDS011;36281;34.132;-118.018;2024-02-15T03:20:52;6.65;;;3.95;;
50367;SDS011;36281;34.132;-118.018;2024-02-15T03:23:21;6.63;;;5.15;;
50367;SDS011;36281;34.132;-118.018;2024-02-15T03:25:50;6.40;;;5.25;;
50367;SDS011;36281;34.132;-118.018;2024-02-15T03:28:19;8.07;;;5.43;;
50367;SDS011;36281;34.132;-118.018;2024-02-15T03:30:48;7.70;;;4.65;;
50367;SDS011;36281;34.132;-118.018;2024-02-15T03:33:19;6.55;;;5.15;;
50367;SDS011;36281;34.132;-118.018;2024-02-15T03:35:54;8.32;;;5.55;;
50367;SDS011;36281;34.132;-118.018;2024-02-15T03:38:27;8.40;;;4.88;;
50367;SDS011;36281;34.132;-118.018;2024-02-15T03:40:56;6.05;;;4.72;;
50367;SDS011;36281;34.132;-118.018;2024-02-15T03:43:26;7.15;;;3.90;;
50367;SDS011;36281;34.132;-118.018;2024-02-15T03:45:55;6.25;;;4.30;;
50367;SDS011;36281;34.132;-118.018;2024-02-15T03:48:27;8.30;;;4.40;;
50367;SDS011;36281;34.132;-118.018;2024-02-15T03:50:56;7.80;;;4.30;;
50367;SDS011;36281;34.132;-118.018;2024-02-15T03:53:26;4.68;;;4.28;;
50367;SDS011;36281;34.132;-118.018;2024-02-15T03:55:58;7.28;;;4.35;;
50367;SDS011;36281;34.132;-118.018;2024-02-15T03:58:28;5.63;;;4.10;;
50367;SDS011;36281;34.132;-118.018;2024-02-15T04:01:00;7.32;;;4.35;;
50367;SDS011;36281;34.132;-118.018;2024-02-15T04:03:33;6.15;;;4.28;;
50367;SDS011;36281;34.132;-118.018;2024-02-15T04:06:03;6.93;;;4.30;;
50367;SDS011;36281;34.132;-118.018;2024-02-15T04:08:32;7.55;;;4.75;;
50367;SDS011;36281;34.132;-118.018;2024-02-15T04:11:03;8.27;;;5.18;;
50367;SDS011;36281;34.132;-118.018;2024-02-15T04:13:33;9.55;;;5.43;;
50367;SDS011;36281;34.132;-118.018;2024-02-15T04:16:03;6.75;;;5.28;;
50367;SDS011;36281;34.132;-118.018;2024-02-15T04:18:34;10.13;;;4.75;;
50367;SDS011;36281;34.132;-118.018;2024-02-15T04:21:03;12.45;;;5.90;;
50367;SDS011;36281;34.132;-118.018;2024-02-15T04:23:35;11.90;;;5.93;;
50367;SDS011;36281;34.132;-118.018;2024-02-15T04:26:04;13.02;;;5.88;;
50367;SDS011;36281;34.132;-118.018;2024-02-15T04:28:33;8.80;;;5.00;;
50367;SDS011;36281;34.132;-118.018;2024-02-15T04:31:02;7.85;;;4.97;;
50367;SDS011;36281;34.132;-118.018;2024-02-15T04:33:31;12.73;;;5.10;;
50367;SDS011;36281;34.132;-118.018;2024-02-15T04:36:02;9.10;;;5.07;;
50367;SDS011;36281;34.132;-118.018;2024-02-15T04:38:34;7.40;;;4.40;;
50367;SDS011;36281;34.132;-118.018;2024-02-15T04:41:03;6.45;;;4.50;;
50367;SDS011;36281;34.132;-118.018;2024-02-15T04:43:36;7.97;;;4.63;;
50367;SDS011;36281;34.132;-118.018;2024-02-15T04:46:08;7.75;;;4.75;;
50367;SDS011;36281;34.132;-118.018;2024-02-15T04:48:37;7.40;;;5.40;;
50367;SDS011;36281;34.132;-118.018;2024-02-15T04:51:09;6.40;;;5.40;;
50367;SDS011;36281;34.132;-118.018;2024-02-15T04:53:39;10.45;;;5.72;;
50367;SDS011;36281;34.132;-118.018;2024-02-15T04:56:09;8.35;;;5.90;;
50367;SDS011;36281;34.132;-118.018;2024-02-15T04:58:41;11.10;;;7.25;;
50367;SDS011;36281;34.132;-118.018;2024-02-15T05:01:13;10.40;;;6.35;;
50367;SDS011;36281;34.132;-118.018;2024-02-15T05:03:46;8.48;;;5.63;;
50367;SDS011;36281;34.132;-118.018;2024-02-15T05:06:17;8.38;;;6.10;;
50367;SDS011;36281;34.132;-118.018;2024-02-15T05:08:47;9.70;;;6.20;;
50367;SDS011;36281;34.132;-118.018;2024-02-15T05:11:16;10.73;;;6.00;;
50367;SDS011;36281;34.132;-118.018;2024-02-15T05:13:47;10.65;;;6.47;;
50367;SDS011;36281;34.132;-118.018;2024-02-15T05:16:19;9.05;;;6.00;;
50367;SDS011;36281;34.132;-118.018;2024-02-15T05:18:48;9.02;;;6.88;;
50367;SDS011;36281;34.132;-118.018;2024-02-15T05:21:19;15.43;;;6.88;;
50367;SDS011;36281;34.132;-118.018;2024-02-15T05:23:48;11.35;;;6.65;;
50367;SDS011;36281;34.132;-118.018;2024-02-15T05:26:19;9.45;;;6.55;;
50367;SDS011;36281;34.132;-118.018;2024-02-15T05:28:51;9.38;;;6.47;;
50367;SDS011;36281;34.132;-118.018;2024-02-15T05:31:20;8.80;;;6.28;;
50367;SDS011;36281;34.132;-118.018;2024-02-15T05:33:53;10.60;;;6.78;;
50367;SDS011;36281;34.132;-118.018;2024-02-15T05:36:24;11.43;;;7.07;;
50367;SDS011;36281;34.132;-118.018;2024-02-15T05:38:53;8.35;;;6.72;;
50367;SDS011;36281;34.132;-118.018;2024-02-15T05:41:22;11.18;;;7.38;;
50367;SDS011;36281;34.132;-118.018;2024-02-15T05:43:52;11.30;;;7.80;;
50367;SDS011;36281;34.132;-118.018;2024-02-15T05:46:21;11.68;;;8.13;;
50367;SDS011;36281;34.132;-118.018;2024-02-15T05:48:50;13.60;;;9.45;;
50367;SDS011;36281;34.132;-118.018;2024-02-15T05:51:21;12.00;;;8.88;;
50367;SDS011;36281;34.132;-118.018;2024-02-15T05:53:53;10.30;;;8.73;;
50367;SDS011;36281;34.132;-118.018;2024-02-15T05:56:26;13.40;;;8.48;;
50367;SDS011;36281;34.132;-118.018;2024-02-15T05:58:57;13.13;;;8.82;;
50367;SDS011;36281;34.132;-118.018;2024-02-15T06:01:26;11.73;;;8.73;;
50367;SDS011;36281;34.132;-118.018;2024-02-15T06:03:59;11.38;;;9.10;;
50367;SDS011;36281;34.132;-118.018;2024-02-15T06:06:29;11.95;;;8.50;;
50367;SDS011;36281;34.132;-118.018;2024-02-15T06:09:00;10.02;;;8.45;;
50367;SDS011;36281;34.132;-118.018;2024-02-15T06:11:30;13.35;;;8.60;;
50367;SDS011;36281;34.132;-118.018;2024-02-15T06:13:59;12.52;;;9.88;;
50367;SDS011;36281;34.132;-118.018;2024-02-15T06:16:28;10.88;;;8.30;;
50367;SDS011;36281;34.132;-118.018;2024-02-15T06:18:57;13.48;;;9.30;;
50367;SDS011;36281;34.132;-118.018;2024-02-15T06:21:27;13.43;;;9.07;;
50367;SDS011;36281;34.132;-118.018;2024-02-15T06:23:56;13.48;;;9.00;;
50367;SDS011;36281;34.132;-118.018;2024-02-15T06:26:27;12.30;;;9.07;;
50367;SDS011;36281;34.132;-118.018;2024-02-15T06:28:56;12.68;;;8.80;;
50367;SDS011;36281;34.132;-118.018;2024-02-15T06:31:44;15.07;;;9.15;;
50367;SDS011;36281;34.132;-118.018;2024-02-15T06:34:31;13.25;;;9.73;;
50367;SDS011;36281;34.132;-118.018;2024-02-15T06:37:37;11.63;;;9.48;;
50367;SDS011;36281;34.132;-118.018;2024-02-15T06:40:25;12.75;;;9.80;;
50367;SDS011;36281;34.132;-118.018;2024-02-15T06:42:55;13.95;;;9.60;;
50367;SDS011;36281;34.132;-118.018;2024-02-15T06:45:24;14.98;;;9.85;;
50367;SDS011;36281;34.132;-118.018;2024-02-15T06:47:54;13.20;;;10.15;;
50367;SDS011;36281;34.132;-118.018;2024-02-15T06:50:23;16.25;;;10.57;;
50367;SDS011;36281;34.132;-118.018;2024-02-15T06:52:53;16.20;;;10.73;;
50367;SDS011;36281;34.132;-118.018;2024-02-15T06:55:24;20.63;;;11.48;;
50367;SDS011;36281;34.132;-118.018;2024-02-15T06:57:56;16.33;;;10.73;;
50367;SDS011;36281;34.132;-118.018;2024-02-15T07:00:25;17.58;;;10.60;;
50367;SDS011;36281;34.132;-118.018;2024-02-15T07:02:54;19.45;;;10.82;;
50367;SDS011;36281;34.132;-118.018;2024-02-15T07:05:23;14.63;;;10.45;;
50367;SDS011;36281;34.132;-118.018;2024-02-15T07:07:55;16.33;;;10.00;;
50367;SDS011;36281;34.132;-118.018;2024-02-15T07:10:24;16.42;;;10.45;;
50367;SDS011;36281;34.132;-118.018;2024-02-15T07:12:53;12.45;;;10.43;;
50367;SDS011;36281;34.132;-118.018;2024-02-15T07:15:24;12.95;;;10.30;;
50367;SDS011;36281;34.132;-118.018;2024-02-15T07:17:53;12.02;;;10.00;;
50367;SDS011;36281;34.132;-118.018;2024-02-15T07:20:22;16.48;;;10.63;;
50367;SDS011;36281;34.132;-118.018;2024-02-15T07:22:52;16.30;;;10.70;;
50367;SDS011;36281;34.132;-118.018;2024-02-15T07:25:21;14.60;;;10.35;;
50367;SDS011;36281;34.132;-118.018;2024-02-15T07:27:50;14.13;;;11.27;;
50367;SDS011;36281;34.132;-118.018;2024-02-15T07:30:22;14.40;;;10.75;;
50367;SDS011;36281;34.132;-118.018;2024-02-15T07:32:52;16.50;;;11.32;;
50367;SDS011;36281;34.132;-118.018;2024-02-15T07:35:21;16.58;;;11.63;;
50367;SDS011;36281;34.132;-118.018;2024-02-15T07:37:52;13.70;;;10.75;;
50367;SDS011;36281;34.132;-118.018;2024-02-15T07:40:24;16.83;;;11.98;;
50367;SDS011;36281;34.132;-118.018;2024-02-15T07:42:56;15.52;;;10.70;;
50367;SDS011;36281;34.132;-118.018;2024-02-15T07:45:27;15.43;;;11.40;;
50367;SDS011;36281;34.132;-118.018;2024-02-15T07:47:57;21.90;;;12.32;;
50367;SDS011;36281;34.132;-118.018;2024-02-15T07:50:26;16.45;;;12.00;;
50367;SDS011;36281;34.132;-118.018;2024-02-15T07:52:56;14.63;;;11.05;;
50367;SDS011;36281;34.132;-118.018;2024-02-15T07:55:25;16.48;;;11.63;;
50367;SDS011;36281;34.132;-118.018;2024-02-15T07:57:55;14.85;;;11.30;;
50367;SDS011;36281;34.132;-118.018;2024-02-15T08:00:28;14.90;;;11.65;;
50367;SDS011;36281;34.132;-118.018;2024-02-15T08:02:57;15.40;;;11.40;;
50367;SDS011;36281;34.132;-118.018;2024-02-15T08:05:27;15.05;;;11.23;;
50367;SDS011;36281;34.132;-118.018;2024-02-15T08:07:56;13.77;;;10.70;;
50367;SDS011;36281;34.132;-118.018;2024-02-15T08:10:25;17.05;;;11.52;;
50367;SDS011;36281;34.132;-118.018;2024-02-15T08:12:56;15.38;;;11.30;;
50367;SDS011;36281;34.132;-118.018;2024-02-15T08:15:26;17.73;;;11.30;;
50367;SDS011;36281;34.132;-118.018;2024-02-15T08:17:56;17.38;;;11.90;;
50367;SDS011;36281;34.132;-118.018;2024-02-15T08:20:26;15.02;;;11.23;;
50367;SDS011;36281;34.132;-118.018;2024-02-15T08:22:59;14.40;;;11.20;;
50367;SDS011;36281;34.132;-118.018;2024-02-15T08:25:28;16.92;;;11.25;;
50367;SDS011;36281;34.132;-118.018;2024-02-15T08:27:57;14.77;;;10.52;;
50367;SDS011;36281;34.132;-118.018;2024-02-15T08:30:34;13.82;;;11.63;;
50367;SDS011;36281;34.132;-118.018;2024-02-15T08:33:05;17.58;;;11.82;;
50367;SDS011;36281;34.132;-118.018;2024-02-15T08:35:34;15.02;;;10.98;;
50367;SDS011;36281;34.132;-118.018;2024-02-15T08:38:04;13.05;;;10.55;;
50367;SDS011;36281;34.132;-118.018;2024-02-15T08:40:33;14.82;;;10.93;;
50367;SDS011;36281;34.132;-118.018;2024-02-15T08:43:03;11.65;;;10.07;;
50367;SDS011;36281;34.132;-118.018;2024-02-15T08:45:32;18.02;;;10.70;;
50367;SDS011;36281;34.132;-118.018;2024-02-15T08:48:03;15.20;;;10.52;;
50367;SDS011;36281;34.132;-118.018;2024-02-15T08:50:33;13.45;;;10.15;;
50367;SDS011;36281;34.132;-118.018;2024-02-15T08:53:02;13.93;;;10.50;;
50367;SDS011;36281;34.132;-118.018;2024-02-15T08:55:34;12.88;;;10.00;;
50367;SDS011;36281;34.132;-118.018;2024-02-15T08:58:04;12.90;;;10.32;;
50367;SDS011;36281;34.132;-118.018;2024-02-15T09:00:34;13.05;;;10.38;;
50367;SDS011;36281;34.132;-118.018;2024-02-15T09:03:05;15.40;;;10.30;;
50367;SDS011;36281;34.132;-118.018;2024-02-15T09:05:35;15.60;;;10.20;;
50367;SDS011;36281;34.132;-118.018;2024-02-15T09:08:04;13.57;;;10.02;;
50367;SDS011;36281;34.132;-118.018;2024-02-15T09:10:34;12.48;;;9.30;;
50367;SDS011;36281;34.132;-118.018;2024-02-15T09:13:06;12.95;;;10.63;;
50367;SDS011;36281;34.132;-118.018;2024-02-15T09:15:37;13.38;;;9.63;;
50367;SDS011;36281;34.132;-118.018;2024-02-15T09:18:08;14.43;;;10.07;;
50367;SDS011;36281;34.132;-118.018;2024-02-15T09:20:40;12.45;;;9.77;;
50367;SDS011;36281;34.132;-118.018;2024-02-15T09:23:12;11.90;;;9.63;;
50367;SDS011;36281;34.132;-118.018;2024-02-15T09:25:42;12.52;;;9.68;;
50367;SDS011;36281;34.132;-118.018;2024-02-15T09:28:11;14.43;;;10.65;;
50367;SDS011;36281;34.132;-118.018;2024-02-15T09:30:43;15.43;;;10.15;;
50367;SDS011;36281;34.132;-118.018;2024-02-15T09:33:14;12.15;;;9.80;;
50367;SDS011;36281;34.132;-118.018;2024-02-15T09:35:44;14.65;;;10.23;;
50367;SDS011;36281;34.132;-118.018;2024-02-15T09:38:14;15.90;;;10.55;;
50367;SDS011;36281;34.132;-118.018;2024-02-15T09:40:44;13.00;;;9.48;;
50367;SDS011;36281;34.132;-118.018;2024-02-15T09:43:17;16.17;;;9.98;;
50367;SDS011;36281;34.132;-118.018;2024-02-15T09:45:48;16.65;;;11.02;;
50367;SDS011;36281;34.132;-118.018;2024-02-15T09:48:17;12.00;;;9.68;;
50367;SDS011;36281;34.132;-118.018;2024-02-15T09:50:49;13.98;;;9.75;;
50367;SDS011;36281;34.132;-118.018;2024-02-15T09:53:20;14.15;;;10.40;;
50367;SDS011;36281;34.132;-118.018;2024-02-15T09:55:56;10.93;;;9.45;;
50367;SDS011;36281;34.132;-118.018;2024-02-15T09:58:39;12.97;;;10.20;;
50367;SDS011;36281;34.132;-118.018;2024-02-15T10:01:12;12.82;;;10.05;;
50367;SDS011;36281;34.132;-118.018;2024-02-15T10:03:43;14.07;;;10.88;;
50367;SDS011;36281;34.132;-118.018;2024-02-15T10:06:14;12.65;;;10.45;;
50367;SDS011;36281;34.132;-118.018;2024-02-15T10:08:46;12.93;;;10.30;;
50367;SDS011;36281;34.132;-118.018;2024-02-15T10:11:18;15.10;;;10.80;;
50367;SDS011;36281;34.132;-118.018;2024-02-15T10:13:53;14.52;;;11.00;;
50367;SDS011;36281;34.132;-118.018;2024-02-15T10:16:39;14.77;;;11.20;;
50367;SDS011;36281;34.132;-118.018;2024-02-15T10:19:09;13.60;;;11.75;;
50367;SDS011;36281;34.132;-118.018;2024-02-15T10:21:38;14.50;;;11.05;;
50367;SDS011;36281;34.132;-118.018;2024-02-15T10:24:12;15.73;;;11.13;;
50367;SDS011;36281;34.132;-118.018;2024-02-15T10:26:47;14.70;;;10.37;;
50367;SDS011;36281;34.132;-118.018;2024-02-15T10:29:20;17.30;;;10.82;;
50367;SDS011;36281;34.132;-118.018;2024-02-15T10:32:00;14.75;;;11.10;;
50367;SDS011;36281;34.132;-118.018;2024-02-15T10:34:30;16.17;;;11.60;;
50367;SDS011;36281;34.132;-118.018;2024-02-15T10:37:10;15.13;;;11.45;;
50367;SDS011;36281;34.132;-118.018;2024-02-15T10:39:42;16.17;;;10.93;;
50367;SDS011;36281;34.132;-118.018;2024-02-15T10:42:12;19.65;;;11.20;;
50367;SDS011;36281;34.132;-118.018;2024-02-15T10:44:48;16.03;;;11.17;;
50367;SDS011;36281;34.132;-118.018;2024-02-15T10:47:25;16.33;;;10.57;;
50367;SDS011;36281;34.132;-118.018;2024-02-15T10:49:58;17.08;;;11.45;;
50367;SDS011;36281;34.132;-118.018;2024-02-15T10:52:28;13.35;;;10.38;;
50367;SDS011;36281;34.132;-118.018;2024-02-15T10:55:01;17.38;;;11.13;;
50367;SDS011;36281;34.132;-118.018;2024-02-15T10:57:37;16.88;;;10.65;;
50367;SDS011;36281;34.132;-118.018;2024-02-15T11:00:08;15.90;;;10.68;;
50367;SDS011;36281;34.132;-118.018;2024-02-15T11:02:57;14.50;;;10.40;;
50367;SDS011;36281;34.132;-118.018;2024-02-15T11:05:31;13.77;;;10.93;;
50367;SDS011;36281;34.132;-118.018;2024-02-15T11:08:12;15.90;;;10.93;;
50367;SDS011;36281;34.132;-118.018;2024-02-15T11:10:52;15.23;;;10.90;;
50367;SDS011;36281;34.132;-118.018;2024-02-15T11:13:27;16.90;;;10.95;;
50367;SDS011;36281;34.132;-118.018;2024-02-15T11:16:05;14.38;;;10.70;;
50367;SDS011;36281;34.132;-118.018;2024-02-15T11:18:52;12.98;;;10.27;;
50367;SDS011;36281;34.132;-118.018;2024-02-15T11:24:30;15.43;;;11.05;;
50367;SDS011;36281;34.132;-118.018;2024-02-15T11:27:11;14.27;;;11.27;;
50367;SDS011;36281;34.132;-118.018;2024-02-15T11:29:51;14.50;;;10.43;;
50367;SDS011;36281;34.132;-118.018;2024-02-15T11:32:43;14.23;;;11.18;;
50367;SDS011;36281;34.132;-118.018;2024-02-15T11:35:22;14.90;;;10.10;;
50367;SDS011;36281;34.132;-118.018;2024-02-15T11:37:54;14.18;;;10.38;;
50367;SDS011;36281;34.132;-118.018;2024-02-15T11:40:27;16.08;;;11.50;;
50367;SDS011;36281;34.132;-118.018;2024-02-15T11:46:25;13.70;;;10.13;;
50367;SDS011;36281;34.132;-118.018;2024-02-15T11:49:00;14.90;;;11.02;;
50367;SDS011;36281;34.132;-118.018;2024-02-15T11:51:42;13.55;;;10.05;;
50367;SDS011;36281;34.132;-118.018;2024-02-15T11:54:15;13.05;;;10.27;;
50367;SDS011;36281;34.132;-118.018;2024-02-15T11:56:58;13.52;;;10.50;;
50367;SDS011;36281;34.132;-118.018;2024-02-15T11:59:42;14.07;;;10.27;;
50367;SDS011;36281;34.132;-118.018;2024-02-15T12:02:33;13.00;;;10.07;;
50367;SDS011;36281;34.132;-118.018;2024-02-15T12:05:21;13.20;;;10.57;;
50367;SDS011;36281;34.132;-118.018;2024-02-15T12:08:12;14.30;;;10.75;;
50367;SDS011;36281;34.132;-118.018;2024-02-15T12:10:59;13.23;;;10.45;;
50367;SDS011;36281;34.132;-118.018;2024-02-15T12:13:49;12.48;;;9.75;;
50367;SDS011;36281;34.132;-118.018;2024-02-15T12:16:43;13.68;;;10.20;;
50367;SDS011;36281;34.132;-118.018;2024-02-15T12:19:31;13.93;;;10.07;;
50367;SDS011;36281;34.132;-118.018;2024-02-15T12:22:03;16.13;;;10.57;;
50367;SDS011;36281;34.132;-118.018;2024-02-15T12:24:39;12.98;;;10.07;;
50367;SDS011;36281;34.132;-118.018;2024-02-15T12:27:13;14.45;;;9.73;;
50367;SDS011;36281;34.132;-118.018;2024-02-15T12:29:44;12.25;;;10.00;;
50367;SDS011;36281;34.132;-118.018;2024-02-15T12:32:20;14.88;;;9.98;;
50367;SDS011;36281;34.132;-118.018;2024-02-15T12:37:47;15.20;;;10.05;;
50367;SDS011;36281;34.132;-118.018;2024-02-15T12:40:19;13.68;;;9.60;;
50367;SDS011;36281;34.132;-118.018;2024-02-15T12:42:55;13.32;;;9.75;;
50367;SDS011;36281;34.132;-118.018;2024-02-15T12:45:25;12.10;;;9.68;;
50367;SDS011;36281;34.132;-118.018;2024-02-15T12:47:58;13.60;;;9.55;;
50367;SDS011;36281;34.132;-118.018;2024-02-15T12:50:31;13.60;;;9.65;;
50367;SDS011;36281;34.132;-118.018;2024-02-15T12:53:02;12.50;;;9.55;;
50367;SDS011;36281;34.132;-118.018;2024-02-15T12:55:33;13.13;;;9.40;;
50367;SDS011;36281;34.132;-118.018;2024-02-15T12:58:07;12.50;;;9.63;;
50367;SDS011;36281;34.132;-118.018;2024-02-15T13:00:46;14.68;;;9.80;;
50367;SDS011;36281;34.132;-118.018;2024-02-15T13:03:17;12.45;;;9.68;;
50367;SDS011;36281;34.132;-118.018;2024-02-15T13:05:47;14.55;;;9.70;;
50367;SDS011;36281;34.132;-118.018;2024-02-15T13:08:19;15.05;;;9.35;;
50367;SDS011;36281;34.132;-118.018;2024-02-15T13:10:54;11.63;;;9.40;;
50367;SDS011;36281;34.132;-118.018;2024-02-15T13:13:29;13.65;;;9.43;;
50367;SDS011;36281;34.132;-118.018;2024-02-15T13:15:59;15.18;;;10.00;;
50367;SDS011;36281;34.132;-118.018;2024-02-15T13:18:29;13.27;;;9.73;;
50367;SDS011;36281;34.132;-118.018;2024-02-15T13:21:04;13.00;;;9.85;;
50367;SDS011;36281;34.132;-118.018;2024-02-15T13:23:41;15.23;;;10.20;;
50367;SDS011;36281;34.132;-118.018;2024-02-15T13:26:24;13.75;;;9.68;;
50367;SDS011;36281;34.132;-118.018;2024-02-15T13:28:53;12.80;;;9.15;;
50367;SDS011;36281;34.132;-118.018;2024-02-15T13:31:26;14.80;;;10.25;;
50367;SDS011;36281;34.132;-118.018;2024-02-15T13:34:04;15.20;;;10.50;;
50367;SDS011;36281;34.132;-118.018;2024-02-15T13:36:39;15.32;;;10.10;;
50367;SDS011;36281;34.132;-118.018;2024-02-15T13:39:13;13.30;;;9.65;;
50367;SDS011;36281;34.132;-118.018;2024-02-15T13:41:51;14.10;;;9.82;;
50367;SDS011;36281;34.132;-118.018;2024-02-15T13:44:20;12.77;;;8.90;;
50367;SDS011;36281;34.132;-118.018;2024-02-15T13:46:55;15.43;;;9.98;;
50367;SDS011;36281;34.132;-118.018;2024-02-15T13:49:25;13.23;;;9.63;;
50367;SDS011;36281;34.132;-118.018;2024-02-15T13:52:01;13.95;;;10.32;;
50367;SDS011;36281;34.132;-118.018;2024-02-15T13:54:33;14.07;;;9.73;;
50367;SDS011;36281;34.132;-118.018;2024-02-15T13:57:07;12.23;;;9.82;;
50367;SDS011;36281;34.132;-118.018;2024-02-15T13:59:42;12.32;;;9.65;;
50367;SDS011;36281;34.132;-118.018;2024-02-15T14:02:11;15.70;;;10.25;;
50367;SDS011;36281;34.132;-118.018;2024-02-15T14:04:50;13.45;;;10.40;;
50367;SDS011;36281;34.132;-118.018;2024-02-15T14:07:19;15.45;;;10.40;;
50367;SDS011;36281;34.132;-118.018;2024-02-15T14:09:48;14.85;;;11.27;;
50367;SDS011;36281;34.132;-118.018;2024-02-15T14:12:30;16.77;;;11.02;;
50367;SDS011;36281;34.132;-118.018;2024-02-15T14:15:00;16.35;;;11.27;;
50367;SDS011;36281;34.132;-118.018;2024-02-15T14:17:29;15.40;;;11.23;;
50367;SDS011;36281;34.132;-118.018;2024-02-15T14:19:59;15.40;;;10.48;;
50367;SDS011;36281;34.132;-118.018;2024-02-15T14:22:30;16.50;;;10.93;;
50367;SDS011;36281;34.132;-118.018;2024-02-15T14:24:59;13.60;;;9.93;;
50367;SDS011;36281;34.132;-118.018;2024-02-15T14:27:31;15.60;;;10.95;;
50367;SDS011;36281;34.132;-118.018;2024-02-15T14:30:00;12.80;;;10.38;;
50367;SDS011;36281;34.132;-118.018;2024-02-15T14:32:48;15.38;;;10.95;;